Time;durP1;ratioP1;P1;durP2;ratioP2;P2;SDS_P1;SDS_P2;PMS_P1;PMS_P2;Temp;Humidity;BMP_temperature;BMP_pressure;BME280_temperature;BME280_humidity;BME280_pressure;Samples;Min_cycle;Max_cycle;Signal;HPM_P1;HPM_P2
2022/08/28 00:01:48;;;;;;;;;;;;;;;20.70;55.26;98739.11;1644993;85;20078;-70
2022/08/28 00:04:14;;;;;;;;;;;;;;;20.64;55.67;98734.17;1659689;85;20141;-70
2022/08/28 00:06:40;;;;;;;;;;;;;;;20.54;55.79;98732.71;1658840;85;20170;-70
2022/08/28 00:09:07;;;;;;;;;;;;;;;20.48;56.15;98729.66;1660440;85;20101;-71
2022/08/28 00:11:36;;;;;;;;;;;;;;;20.41;56.46;98730.39;1660449;85;21157;-71
2022/08/28 00:14:03;;;;;;;;;;;;;;;20.31;56.71;98728.35;1660422;85;20404;-72
2022/08/28 00:16:32;;;;;;;;;;;;;;;20.24;57.06;98729.61;1659744;85;20162;-70
2022/08/28 00:19:00;;;;;;;;;;;;;;;20.16;57.30;98727.31;1660052;85;20105;-71
2022/08/28 00:21:28;;;;;;;;;;;;;;;20.09;57.40;98727.50;1660347;85;20126;-69
2022/08/28 00:23:55;;;;;;;;;;;;;;;20.06;57.32;98723.13;1660399;85;21149;-69
2022/08/28 00:29:06;;;;;;;;;;;;;;;19.94;57.77;98717.03;1635177;85;20118;-70
2022/08/28 00:31:37;;;;;;;;;;;;;;;19.89;57.92;98719.13;1660276;85;20121;-70
2022/08/28 00:34:02;;;;;;;;;;;;;;;19.85;58.02;98717.16;1659643;85;20146;-70
2022/08/28 00:36:29;;;;;;;;;;;;;;;19.82;58.08;98723.04;1659444;85;21155;-71
2022/08/28 00:38:58;;;;;;;;;;;;;;;19.77;58.29;98715.69;1659743;85;20110;-69
2022/08/28 00:41:25;;;;;;;;;;;;;;;19.71;58.42;98715.32;1660398;85;20097;-68
2022/08/28 00:43:52;;;;;;;;;;;;;;;19.63;58.59;98713.86;1660353;85;20158;-71
2022/08/28 00:46:20;;;;;;;;;;;;;;;19.54;58.78;98715.88;1612273;85;20571;-70
2022/08/28 00:48:46;;;;;;;;;;;;;;;19.44;59.10;98715.73;1659555;85;21148;-72
2022/08/28 00:53:58;;;;;;;;;;;;;;;19.26;59.80;98717.28;1659848;85;20091;-69
2022/08/28 00:56:24;;;;;;;;;;;;;;;19.22;60.12;98708.85;1634096;85;20090;-69
2022/08/28 00:58:51;;;;;;;;;;;;;;;19.20;60.36;98710.98;1660460;85;20145;-69
2022/08/28 01:01:18;;;;;;;;;;;;;;;19.21;60.56;98711.28;1659482;86;21778;-71
2022/08/28 01:03:44;;;;;;;;;;;;;;;19.21;60.58;98713.98;1659985;85;20157;-69
2022/08/28 01:06:12;;;;;;;;;;;;;;;19.22;60.70;98707.50;1660269;85;20215;-72
2022/08/28 01:08:39;;;;;;;;;;;;;;;19.24;60.86;98706.72;1657747;85;20114;-69
2022/08/28 01:11:06;;;;;;;;;;;;;;;19.26;60.79;98714.06;1659598;85;20102;-69
2022/08/28 01:13:33;;;;;;;;;;;;;;;19.28;60.47;98715.98;1659761;85;21213;-71
2022/08/28 01:15:59;;;;;;;;;;;;;;;19.27;60.24;98714.33;1660373;85;20158;-70
2022/08/28 01:18:29;;;;;;;;;;;;;;;19.26;60.25;98715.41;1658722;85;20479;-69
2022/08/28 01:21:10;;;;;;;;;;;;;;;19.24;60.49;98716.72;1659351;85;20094;-69
2022/08/28 01:23:57;;;;;;;;;;;;;;;19.19;60.57;98717.42;1660297;85;20102;-71
2022/08/28 01:26:25;;;;;;;;;;;;;;;19.06;60.75;98719.91;1642780;85;21223;-69
2022/08/28 01:28:51;;;;;;;;;;;;;;;18.95;61.15;98719.98;1658253;85;20137;-73
2022/08/28 01:31:18;;;;;;;;;;;;;;;18.85;61.47;98715.20;1659848;85;20110;-71
2022/08/28 01:33:44;;;;;;;;;;;;;;;18.79;61.82;98712.67;1660266;85;20137;-72
2022/08/28 01:36:11;;;;;;;;;;;;;;;18.75;62.08;98720.93;1660263;85;20495;-73
2022/08/28 01:38:39;;;;;;;;;;;;;;;18.73;62.26;98713.10;1658877;85;21295;-71
2022/08/28 01:41:05;;;;;;;;;;;;;;;18.71;62.41;98710.36;1659237;85;20102;-71
2022/08/28 01:43:31;;;;;;;;;;;;;;;18.70;62.55;98714.10;1660283;85;20157;-71
2022/08/28 01:46:01;;;;;;;;;;;;;;;18.71;62.67;98715.75;1661988;85;20135;-71
2022/08/28 01:48:28;;;;;;;;;;;;;;;18.73;62.70;98714.97;1662270;85;20126;-71
2022/08/28 01:50:54;;;;;;;;;;;;;;;18.79;62.58;98709.98;1661268;85;22169;-70
2022/08/28 01:53:23;;;;;;;;;;;;;;;18.83;62.64;98711.12;1662732;85;20121;-71
2022/08/28 01:55:50;;;;;;;;;;;;;;;18.87;62.58;98712.28;1663343;85;20113;-69
2022/08/28 01:58:16;;;;;;;;;;;;;;;18.88;62.53;98713.37;1663024;85;20460;-70
2022/08/28 02:00:43;;;;;;;;;;;;;;;18.92;62.52;98711.85;1662851;85;20162;-71
2022/08/28 02:03:09;;;;;;;;;;;;;;;18.98;62.55;98710.07;1661539;85;21175;-70
2022/08/28 02:05:36;;;;;;;;;;;;;;;19.05;62.32;98710.20;1662915;85;20122;-71
2022/08/28 02:08:03;;;;;;;;;;;;;;;19.13;62.28;98713.55;1663025;85;20090;-69
2022/08/28 02:10:31;;;;;;;;;;;;;;;19.15;62.33;98708.20;1662606;85;20118;-73
2022/08/28 02:12:58;;;;;;;;;;;;;;;19.16;62.19;98704.45;1662895;85;20089;-69
2022/08/28 02:15:27;;;;;;;;;;;;;;;19.18;62.01;98710.41;1663149;85;21162;-71
2022/08/28 02:17:53;;;;;;;;;;;;;;;19.14;61.80;98711.95;1662708;85;20093;-72
2022/08/28 02:20:19;;;;;;;;;;;;;;;19.08;61.77;98711.03;1662872;85;20428;-70
2022/08/28 02:22:46;;;;;;;;;;;;;;;19.03;61.55;98711.50;1662704;85;20150;-70
2022/08/28 02:25:12;;;;;;;;;;;;;;;18.93;61.55;98699.17;1663138;85;20186;-70
2022/08/28 02:27:39;;;;;;;;;;;;;;;18.82;61.69;98706.25;1662943;85;21189;-69
2022/08/28 02:30:06;;;;;;;;;;;;;;;18.71;62.00;98711.70;1662856;85;20129;-70
2022/08/28 02:32:33;;;;;;;;;;;;;;;18.59;62.42;98713.64;1662565;85;20122;-70
2022/08/28 02:34:59;;;;;;;;;;;;;;;18.50;62.78;98713.20;1663220;85;20852;-70
2022/08/28 02:37:25;;;;;;;;;;;;;;;18.43;63.19;98718.67;1663190;85;20121;-73
2022/08/28 02:39:56;;;;;;;;;;;;;;;18.40;63.54;98708.92;1663090;85;21175;-70
2022/08/28 02:42:22;;;;;;;;;;;;;;;18.40;63.85;98711.62;1662097;85;20175;-69
2022/08/28 02:44:48;;;;;;;;;;;;;;;18.41;64.07;98722.14;1662943;84;20161;-70
2022/08/28 02:47:15;;;;;;;;;;;;;;;18.41;64.25;98719.97;1662562;85;20102;-69
2022/08/28 02:49:41;;;;;;;;;;;;;;;18.39;64.46;98722.08;1662876;85;20467;-69
2022/08/28 02:52:08;;;;;;;;;;;;;;;18.39;64.65;98727.47;1662294;85;21163;-69
2022/08/28 02:54:34;;;;;;;;;;;;;;;18.37;64.80;98727.72;1663016;85;20106;-71
2022/08/28 02:57:01;;;;;;;;;;;;;;;18.36;64.92;98722.55;1663112;85;20145;-69
2022/08/28 02:59:28;;;;;;;;;;;;;;;18.34;65.02;98720.12;1662140;85;21041;-70
2022/08/28 03:01:55;;;;;;;;;;;;;;;18.33;65.12;98717.64;1661746;85;21064;-71
2022/08/28 03:04:21;;;;;;;;;;;;;;;18.33;65.15;98716.30;1663029;85;21168;-70
2022/08/28 03:06:49;;;;;;;;;;;;;;;18.31;65.03;98720.59;1662892;85;20168;-70
2022/08/28 03:09:15;;;;;;;;;;;;;;;18.28;65.01;98717.02;1663052;85;20089;-70
2022/08/28 03:11:42;;;;;;;;;;;;;;;18.26;65.04;98722.34;1661653;85;20153;-70
2022/08/28 03:14:08;;;;;;;;;;;;;;;18.23;65.03;98714.75;1661747;85;20451;-70
2022/08/28 03:16:34;;;;;;;;;;;;;;;18.19;64.99;98718.45;1663014;85;21206;-72
2022/08/28 03:19:01;;;;;;;;;;;;;;;18.13;64.85;98723.44;1662733;85;20170;-70
2022/08/28 03:21:27;;;;;;;;;;;;;;;18.02;64.73;98716.19;1662246;85;20089;-70
2022/08/28 03:23:53;;;;;;;;;;;;;;;17.93;64.81;98722.17;1662364;85;20619;-72
2022/08/28 03:26:20;;;;;;;;;;;;;;;17.83;64.96;98720.09;1646795;85;20094;-70
2022/08/28 03:28:48;;;;;;;;;;;;;;;17.76;65.16;98720.19;1663673;85;21166;-69
2022/08/28 03:31:18;;;;;;;;;;;;;;;17.72;65.28;98718.20;1663312;85;20090;-70
2022/08/28 03:33:44;;;;;;;;;;;;;;;17.63;65.53;98715.05;1663190;85;20089;-70
2022/08/28 03:36:12;;;;;;;;;;;;;;;17.57;65.74;98720.55;1662962;85;20196;-70
2022/08/28 03:38:40;;;;;;;;;;;;;;;17.54;66.01;98720.49;1663160;85;20122;-70
2022/08/28 03:41:10;;;;;;;;;;;;;;;17.55;66.20;98720.77;1662402;85;21159;-70
2022/08/28 03:43:37;;;;;;;;;;;;;;;17.58;66.15;98719.48;1663047;85;20408;-70
2022/08/28 03:46:04;;;;;;;;;;;;;;;17.60;66.21;98726.78;1662868;85;20150;-72
2022/08/28 03:48:32;;;;;;;;;;;;;;;17.61;66.26;98723.05;1662273;85;20114;-70
2022/08/28 03:50:59;;;;;;;;;;;;;;;17.61;66.51;98722.53;1662346;85;20485;-70
2022/08/28 03:53:27;;;;;;;;;;;;;;;17.67;66.82;98727.51;1662996;85;21160;-70
2022/08/28 03:55:54;;;;;;;;;;;;;;;17.74;66.97;98724.99;1662939;85;20100;-71
2022/08/28 03:58:22;;;;;;;;;;;;;;;17.83;66.73;98728.16;1662992;85;20165;-73
2022/08/28 04:00:49;;;;;;;;;;;;;;;17.91;66.62;98726.43;1660898;85;20125;-71
2022/08/28 04:03:16;;;;;;;;;;;;;;;17.98;66.40;98729.84;1679086;85;20099;-70
2022/08/28 04:05:43;;;;;;;;;;;;;;;18.06;66.17;98726.79;1664832;85;21177;-71
2022/08/28 04:08:14;;;;;;;;;;;;;;;18.19;65.88;98729.23;1662915;85;20444;-71
2022/08/28 04:10:39;;;;;;;;;;;;;;;18.34;65.43;98732.23;1649794;85;20122;-70
2022/08/28 04:13:06;;;;;;;;;;;;;;;18.49;65.11;98728.53;1662360;85;20089;-69
2022/08/28 04:15:32;;;;;;;;;;;;;;;18.70;64.86;98719.48;1661292;85;20440;-71
2022/08/28 04:17:59;;;;;;;;;;;;;;;18.93;64.42;98722.08;1654742;85;21177;-69
2022/08/28 04:20:26;;;;;;;;;;;;;;;19.21;63.87;98725.28;1662356;85;20094;-70
2022/08/28 04:22:52;;;;;;;;;;;;;;;19.48;63.18;98719.55;1661995;85;20173;-70
2022/08/28 04:25:19;;;;;;;;;;;;;;;19.78;62.41;98719.22;1663033;85;20091;-69
2022/08/28 04:27:47;;;;;;;;;;;;;;;20.08;61.57;98718.28;1649744;85;20106;-69
2022/08/28 04:30:13;;;;;;;;;;;;;;;20.39;60.80;98720.34;1663005;85;21133;-69
2022/08/28 04:32:40;;;;;;;;;;;;;;;20.70;60.00;98718.84;1661584;85;20130;-69
2022/08/28 04:35:08;;;;;;;;;;;;;;;21.02;59.34;98721.05;1661968;85;20420;-70
2022/08/28 04:37:35;;;;;;;;;;;;;;;21.36;58.56;98714.38;1662108;85;20093;-70
2022/08/28 04:40:07;;;;;;;;;;;;;;;21.71;57.66;98718.42;1647653;85;20141;-69
2022/08/28 04:42:34;;;;;;;;;;;;;;;22.03;56.79;98711.09;1661794;85;21160;-70
2022/08/28 04:45:01;;;;;;;;;;;;;;;22.40;56.04;98711.80;1644257;85;20093;-70
2022/08/28 04:47:27;;;;;;;;;;;;;;;22.77;55.24;98713.58;1660079;85;20439;-71
2022/08/28 04:49:54;;;;;;;;;;;;;;;23.14;54.33;98716.92;1660473;85;20141;-70
2022/08/28 04:52:21;;;;;;;;;;;;;;;23.49;53.50;98709.38;1659742;85;20098;-71
2022/08/28 04:54:48;;;;;;;;;;;;;;;23.86;52.81;98712.58;1660216;85;21127;-71
2022/08/28 04:57:15;;;;;;;;;;;;;;;24.26;51.97;98708.98;1660383;85;20094;-71
2022/08/28 04:59:43;;;;;;;;;;;;;;;24.66;50.95;98711.55;1659612;85;20117;-72
2022/08/28 05:02:09;;;;;;;;;;;;;;;25.03;50.33;98707.80;1658803;85;20136;-72
2022/08/28 05:04:36;;;;;;;;;;;;;;;25.41;49.30;98703.99;1660319;85;20122;-71
2022/08/28 05:07:02;;;;;;;;;;;;;;;25.75;48.45;98704.81;1660306;85;22522;-72
2022/08/28 05:09:30;;;;;;;;;;;;;;;26.09;47.68;98701.47;1660315;85;20155;-73
2022/08/28 05:12:00;;;;;;;;;;;;;;;26.43;46.82;98708.73;1657986;85;20118;-72
2022/08/28 05:14:26;;;;;;;;;;;;;;;26.78;46.01;98711.84;1642092;85;20101;-70
2022/08/28 05:16:54;;;;;;;;;;;;;;;27.14;45.33;98709.98;1659986;85;20134;-69
2022/08/28 05:19:20;;;;;;;;;;;;;;;27.49;44.62;98712.16;1658940;85;21170;-69
2022/08/28 05:21:46;;;;;;;;;;;;;;;27.84;43.79;98710.20;1658494;85;20089;-70
2022/08/28 05:24:13;;;;;;;;;;;;;;;28.20;43.13;98715.02;1660124;85;20436;-70
2022/08/28 05:26:40;;;;;;;;;;;;;;;28.54;42.26;98712.14;1660284;85;20142;-69
2022/08/28 05:29:06;;;;;;;;;;;;;;;28.90;41.25;98710.02;1660375;85;20119;-71
2022/08/28 05:31:33;;;;;;;;;;;;;;;29.21;40.34;98705.50;1658776;85;21162;-70
2022/08/28 05:34:01;;;;;;;;;;;;;;;29.55;39.52;98700.83;1660059;85;20145;-69
2022/08/28 05:36:28;;;;;;;;;;;;;;;29.88;38.95;98696.70;1659790;85;20089;-70
2022/08/28 05:38:55;;;;;;;;;;;;;;;30.24;38.42;98699.30;1660233;85;20854;-70
2022/08/28 05:41:23;;;;;;;;;;;;;;;30.57;37.80;98703.30;1659738;85;20564;-70
2022/08/28 05:43:49;;;;;;;;;;;;;;;30.90;37.20;98704.48;1660296;85;21298;-69
2022/08/28 05:46:16;;;;;;;;;;;;;;;31.22;36.63;98707.37;1659097;84;20188;-69
2022/08/28 05:48:44;;;;;;;;;;;;;;;31.54;36.04;98711.02;1664325;85;20102;-69
2022/08/28 05:51:13;;;;;;;;;;;;;;;31.84;35.40;98708.35;1664650;84;20089;-71
2022/08/28 05:53:40;;;;;;;;;;;;;;;32.13;34.86;98703.77;1665838;84;20089;-70
2022/08/28 05:56:08;;;;;;;;;;;;;;;32.46;34.32;98714.94;1664786;85;21781;-69
2022/08/28 05:58:36;;;;;;;;;;;;;;;32.76;33.56;98706.95;1664574;84;20094;-70
2022/08/28 06:01:09;;;;;;;;;;;;;;;33.06;32.64;98709.70;1665894;84;20094;-70
2022/08/28 06:03:36;;;;;;;;;;;;;;;33.35;31.89;98709.60;1665926;85;20081;-71
2022/08/28 06:06:03;;;;;;;;;;;;;;;33.68;31.17;98714.61;1665274;84;20125;-71
2022/08/28 06:08:30;;;;;;;;;;;;;;;33.91;30.76;98713.06;1665303;85;21174;-70
2022/08/28 06:10:57;;;;;;;;;;;;;;;34.22;30.42;98710.38;1665804;84;20125;-72
2022/08/28 06:13:24;;;;;;;;;;;;;;;34.50;29.83;98707.16;1665794;84;20121;-71
2022/08/28 06:15:51;;;;;;;;;;;;;;;34.81;29.40;98706.61;1665236;85;20911;-70
2022/08/28 06:18:17;;;;;;;;;;;;;;;35.09;29.13;98711.07;1665083;85;20105;-70
2022/08/28 06:20:44;;;;;;;;;;;;;;;35.33;28.80;98713.73;1665919;85;21146;-70
2022/08/28 06:23:13;;;;;;;;;;;;;;;35.57;28.82;98714.81;1665697;84;20081;-71
2022/08/28 06:25:43;;;;;;;;;;;;;;;35.86;28.56;98706.95;1665397;85;20209;-72
2022/08/28 06:28:09;;;;;;;;;;;;;;;36.15;28.31;98711.30;1665754;84;20122;-70
2022/08/28 06:30:37;;;;;;;;;;;;;;;36.42;28.24;98712.37;1665904;85;20121;-70
2022/08/28 06:33:04;;;;;;;;;;;;;;;36.71;27.54;98711.11;1664614;84;21799;-72
2022/08/28 06:35:31;;;;;;;;;;;;;;;36.98;27.07;98715.13;1665582;85;20223;-70
2022/08/28 06:37:58;;;;;;;;;;;;;;;37.23;26.54;98710.12;1663669;84;20132;-69
2022/08/28 06:40:24;;;;;;;;;;;;;;;37.44;25.69;98710.58;1665804;85;20098;-70
2022/08/28 06:42:50;;;;;;;;;;;;;;;37.71;25.29;98712.89;1664744;85;20247;-70
2022/08/28 06:45:17;;;;;;;;;;;;;;;37.96;24.43;98709.23;1665213;85;21156;-71
2022/08/28 06:47:43;;;;;;;;;;;;;;;38.15;24.16;98708.58;1661710;85;20089;-71
2022/08/28 06:50:10;;;;;;;;;;;;;;;38.38;24.04;98707.20;1659876;85;20144;-72
2022/08/28 06:52:37;;;;;;;;;;;;;;;38.57;23.80;98711.28;1660002;85;20440;-75
2022/08/28 06:55:04;;;;;;;;;;;;;;;38.78;23.63;98710.84;1660188;85;20159;-73
2022/08/28 06:57:30;;;;;;;;;;;;;;;38.94;23.48;98712.86;1658366;85;21667;-72
2022/08/28 06:59:57;;;;;;;;;;;;;;;39.12;23.50;98715.30;1659890;85;20118;-74
2022/08/28 07:02:24;;;;;;;;;;;;;;;39.31;23.27;98707.43;1659002;85;20089;-72
2022/08/28 07:04:51;;;;;;;;;;;;;;;39.44;23.26;98706.81;1659721;85;20090;-73
2022/08/28 07:07:17;;;;;;;;;;;;;;;39.63;23.03;98710.04;1660459;85;20089;-72
2022/08/28 07:09:44;;;;;;;;;;;;;;;39.77;22.82;98714.35;1658652;85;21560;-71
2022/08/28 07:12:15;;;;;;;;;;;;;;;39.76;22.75;98711.96;1660343;85;20435;-71
2022/08/28 07:14:42;;;;;;;;;;;;;;;39.83;22.67;98710.64;1659527;85;20408;-75
2022/08/28 07:17:09;;;;;;;;;;;;;;;39.84;22.78;98714.41;1660026;85;20876;-72
2022/08/28 07:19:36;;;;;;;;;;;;;;;39.93;22.84;98710.75;1658358;86;20102;-72
2022/08/28 07:22:02;;;;;;;;;;;;;;;40.16;22.55;98713.95;1656586;86;21193;-74
2022/08/28 07:24:29;;;;;;;;;;;;;;;40.36;22.29;98716.12;1656044;86;20205;-70
2022/08/28 07:26:55;;;;;;;;;;;;;;;40.50;21.99;98715.48;1654856;86;20122;-72
2022/08/28 07:29:22;;;;;;;;;;;;;;;40.57;21.76;98713.53;1654227;86;20233;-71
2022/08/28 07:31:49;;;;;;;;;;;;;;;40.42;21.49;98720.75;1657209;86;20141;-71
2022/08/28 07:34:18;;;;;;;;;;;;;;;40.27;21.66;98723.22;1655827;86;21167;-73
2022/08/28 07:36:44;;;;;;;;;;;;;;;40.28;21.60;98722.84;1663569;85;20142;-69
2022/08/28 07:39:11;;;;;;;;;;;;;;;40.34;21.63;98720.48;1657195;86;20404;-72
2022/08/28 07:41:39;;;;;;;;;;;;;;;40.39;21.43;98725.11;1656784;86;20845;-70
2022/08/28 07:46:55;;;;;;;;;;;;;;;40.51;21.48;98723.47;1653133;85;21790;-70
2022/08/28 07:49:21;;;;;;;;;;;;;;;40.67;21.54;98727.36;1658697;85;21085;-72
2022/08/28 07:51:49;;;;;;;;;;;;;;;40.75;21.21;98724.84;1668580;85;20094;-73
2022/08/28 07:54:16;;;;;;;;;;;;;;;40.82;21.28;98725.46;1660426;86;20162;-72
2022/08/28 07:56:42;;;;;;;;;;;;;;;41.02;21.13;98728.20;1658715;86;20168;-71
2022/08/28 07:59:09;;;;;;;;;;;;;;;41.21;20.54;98727.32;1667288;84;21560;-71
2022/08/28 08:01:40;;;;;;;;;;;;;;;41.39;20.04;98727.42;1635009;87;20125;-71
2022/08/28 08:04:11;;;;;;;;;;;;;;;41.58;19.88;98727.70;1633752;86;20154;-72
2022/08/28 08:06:39;;;;;;;;;;;;;;;41.76;19.50;98727.19;1639493;86;20679;-72
2022/08/28 08:09:06;;;;;;;;;;;;;;;41.87;19.31;98726.63;1672477;84;20131;-72
2022/08/28 08:11:34;;;;;;;;;;;;;;;41.97;19.06;98724.44;1637559;86;21179;-76
2022/08/28 08:14:06;;;;;;;;;;;;;;;42.02;18.99;98720.45;1649130;86;20484;-72
2022/08/28 08:16:32;;;;;;;;;;;;;;;42.17;18.97;98722.89;1663326;84;20150;-76
2022/08/28 08:18:59;;;;;;;;;;;;;;;42.32;18.70;98723.69;1637603;86;20158;-72
2022/08/28 08:21:25;;;;;;;;;;;;;;;42.33;18.79;98723.31;1648485;85;20547;-74
2022/08/28 08:23:52;;;;;;;;;;;;;;;42.39;18.63;98719.52;1648378;85;21142;-72
2022/08/28 08:26:20;;;;;;;;;;;;;;;42.28;18.56;98717.31;1653787;86;20180;-71
2022/08/28 08:28:47;;;;;;;;;;;;;;;42.20;18.53;98722.10;1654511;86;20150;-72
2022/08/28 08:31:16;;;;;;;;;;;;;;;42.09;18.53;98723.25;1652886;86;20668;-71
2022/08/28 08:33:45;;;;;;;;;;;;;;;42.07;18.46;98719.47;1652378;86;20161;-74
2022/08/28 08:36:13;;;;;;;;;;;;;;;41.98;18.79;98716.87;1654854;86;21263;-70
2022/08/28 08:38:40;;;;;;;;;;;;;;;41.95;18.70;98712.87;1653424;86;20144;-71
2022/08/28 08:41:19;;;;;;;;;;;;;;;41.88;18.69;98712.84;1654614;86;20119;-71
2022/08/28 08:43:59;;;;;;;;;;;;;;;41.86;18.67;98712.45;1643654;86;20150;-70
2022/08/28 08:46:38;;;;;;;;;;;;;;;41.85;18.83;98711.64;1655585;86;20193;-72
2022/08/28 08:49:07;;;;;;;;;;;;;;;41.85;18.87;98715.83;1649205;86;21301;-75
2022/08/28 08:51:41;;;;;;;;;;;;;;;41.90;18.88;98716.03;1649177;87;20582;-73
2022/08/28 08:54:15;;;;;;;;;;;;;;;41.94;19.03;98711.86;1648291;87;20114;-72
2022/08/28 08:56:42;;;;;;;;;;;;;;;41.95;19.12;98714.86;1648928;85;20468;-71
2022/08/28 08:59:12;;;;;;;;;;;;;;;41.92;19.16;98708.08;1662879;85;20116;-71
2022/08/28 09:01:45;;;;;;;;;;;;;;;41.88;19.09;98712.84;1663129;84;21826;-71
2022/08/28 09:04:38;;;;;;;;;;;;;;;41.98;19.01;98716.87;1661786;84;20534;-71
2022/08/28 09:07:19;;;;;;;;;;;;;;;42.03;19.06;98717.25;1662109;84;20162;-71
2022/08/28 09:09:51;;;;;;;;;;;;;;;41.91;18.88;98716.83;1662724;84;20150;-73
2022/08/28 09:12:25;;;;;;;;;;;;;;;41.97;18.89;98720.25;1662493;84;20089;-71
2022/08/28 09:15:06;;;;;;;;;;;;;;;42.23;18.72;98715.72;1657191;85;20578;-69
2022/08/28 09:17:52;;;;;;;;;;;;;;;42.42;18.32;98721.52;1642517;85;20146;-71
2022/08/28 09:20:21;;;;;;;;;;;;;;;42.54;18.36;98721.73;1635561;85;20437;-70
2022/08/28 09:22:48;;;;;;;;;;;;;;;42.48;18.22;98723.29;1644532;86;20204;-69
2022/08/28 09:25:52;;;;;;;;;;;;;;;42.48;18.20;98720.49;1661557;85;20144;-70
2022/08/28 09:28:22;;;;;;;;;;;;;;;42.63;18.28;98727.72;1632948;86;21183;-70
2022/08/28 09:30:57;;;;;;;;;;;;;;;42.88;18.00;98714.49;1655221;84;20078;-73
2022/08/28 09:33:29;;;;;;;;;;;;;;;43.05;17.64;98715.06;1662695;84;20173;-72
2022/08/28 09:35:56;;;;;;;;;;;;;;;43.11;17.23;98719.05;1661453;84;20090;-71
2022/08/28 09:38:24;;;;;;;;;;;;;;;43.08;17.24;98719.05;1661877;85;20145;-73
2022/08/28 09:43:40;;;;;;;;;;;;;;;43.11;17.16;98714.86;1627284;86;20165;-70
2022/08/28 09:46:23;;;;;;;;;;;;;;;43.33;17.07;98710.82;1590089;86;32422;-73
2022/08/28 09:48:51;;;;;;;;;;;;;;;43.33;16.44;98718.41;1628266;86;20101;-70
2022/08/28 09:51:24;;;;;;;;;;;;;;;43.28;16.22;98718.20;1626861;86;20236;-70
2022/08/28 09:53:54;;;;;;;;;;;;;;;43.37;16.51;98711.59;1663761;85;21142;-68
2022/08/28 09:56:27;;;;;;;;;;;;;;;43.39;16.64;98709.17;1679296;85;20218;-69
2022/08/28 09:58:59;;;;;;;;;;;;;;;43.33;15.71;98712.22;1664693;85;20235;-70
2022/08/28 10:01:47;;;;;;;;;;;;;;;43.35;15.85;98704.80;1632777;86;20191;-71
2022/08/28 10:04:39;;;;;;;;;;;;;;;43.42;16.43;98706.97;1635662;86;20257;-70
2022/08/28 10:07:11;;;;;;;;;;;;;;;43.52;16.64;98717.91;1646705;85;21165;-71
2022/08/28 10:10:04;;;;;;;;;;;;;;;43.53;15.92;98709.12;1640024;86;20202;-69
2022/08/28 10:12:53;;;;;;;;;;;;;;;43.61;15.28;98709.28;1638311;86;20108;-70
2022/08/28 10:15:23;;;;;;;;;;;;;;;43.74;15.38;98708.23;1659841;85;20170;-70
2022/08/28 10:17:56;;;;;;;;;;;;;;;43.84;15.50;98702.36;1603743;86;20168;-68
2022/08/28 10:20:36;;;;;;;;;;;;;;;43.80;15.23;98706.61;1661191;85;21175;-72
2022/08/28 10:23:23;;;;;;;;;;;;;;;43.76;15.15;98704.41;1632181;86;20205;-69
2022/08/28 10:25:57;;;;;;;;;;;;;;;43.75;15.52;98703.44;1635655;87;20159;-73
2022/08/28 10:28:50;;;;;;;;;;;;;;;43.78;15.49;98700.59;1647119;87;20155;-71
2022/08/28 10:31:32;;;;;;;;;;;;;;;43.71;14.92;98702.05;1647989;87;20206;-70
2022/08/28 10:34:24;;;;;;;;;;;;;;;43.42;15.12;98701.36;1650439;86;21277;-70
2022/08/28 10:37:04;;;;;;;;;;;;;;;43.27;15.00;98703.20;1647163;86;20133;-71
2022/08/28 10:39:49;;;;;;;;;;;;;;;43.09;15.60;98701.88;1647413;87;20162;-72
2022/08/28 10:42:27;;;;;;;;;;;;;;;43.00;16.16;98702.89;1651401;85;20413;-72
2022/08/28 10:45:09;;;;;;;;;;;;;;;42.88;16.23;98704.11;1633081;85;20220;-74
2022/08/28 10:47:39;;;;;;;;;;;;;;;42.76;16.20;98703.73;1628783;87;21195;-70
2022/08/28 10:50:16;;;;;;;;;;;;;;;42.57;16.17;98698.56;1647354;86;20428;-70
2022/08/28 10:52:50;;;;;;;;;;;;;;;42.42;16.36;98701.33;1634209;87;20558;-70
2022/08/28 10:55:24;;;;;;;;;;;;;;;42.39;16.40;98696.56;1647630;85;20123;-75
2022/08/28 10:57:56;;;;;;;;;;;;;;;42.36;16.46;98699.35;1650174;85;20098;-70
2022/08/28 11:00:24;;;;;;;;;;;;;;;42.37;16.83;98689.78;1648799;85;21154;-71
2022/08/28 11:02:53;;;;;;;;;;;;;;;42.35;16.68;98695.75;1651292;85;20127;-72
2022/08/28 11:05:20;;;;;;;;;;;;;;;42.47;16.78;98693.76;1653149;85;20453;-70
2022/08/28 11:07:49;;;;;;;;;;;;;;;42.84;16.58;98692.11;1652141;85;20106;-73
2022/08/28 11:10:35;;;;;;;;;;;;;;;43.40;16.09;98689.78;1653271;85;20449;-70
2022/08/28 11:13:06;;;;;;;;;;;;;;;43.72;15.89;98690.25;1649038;87;21548;-73
2022/08/28 11:15:37;;;;;;;;;;;;;;;43.73;15.67;98697.42;1649946;85;20126;-70
2022/08/28 11:18:17;;;;;;;;;;;;;;;43.68;15.48;98692.22;1649007;87;20147;-70
2022/08/28 11:21:20;;;;;;;;;;;;;;;43.37;15.49;98693.99;1647807;87;20119;-69
2022/08/28 11:23:50;;;;;;;;;;;;;;;42.92;16.14;98695.69;1654241;85;20079;-70
2022/08/28 11:26:23;;;;;;;;;;;;;;;42.35;16.78;98705.53;1625692;87;21137;-69
2022/08/28 11:28:49;;;;;;;;;;;;;;;41.92;16.74;98696.10;1644571;85;20149;-72
2022/08/28 11:31:20;;;;;;;;;;;;;;;41.39;17.91;98695.33;1649072;87;20127;-71
2022/08/28 11:33:51;;;;;;;;;;;;;;;40.80;18.46;98700.77;1650233;87;20112;-70
2022/08/28 11:36:21;;;;;;;;;;;;;;;40.30;18.52;98698.77;1648230;87;20123;-72
2022/08/28 11:38:57;;;;;;;;;;;;;;;40.03;18.82;98703.08;1651145;86;22191;-72
2022/08/28 11:41:31;;;;;;;;;;;;;;;39.90;19.08;98696.78;1650799;87;20098;-71
2022/08/28 11:44:19;;;;;;;;;;;;;;;39.68;19.10;98692.19;1665186;85;20095;-70
2022/08/28 11:46:47;;;;;;;;;;;;;;;39.42;19.22;98690.28;1649945;87;20106;-71
2022/08/28 11:49:38;;;;;;;;;;;;;;;39.24;19.43;98692.05;1651883;87;20098;-70
2022/08/28 11:52:24;;;;;;;;;;;;;;;39.07;19.31;98689.21;1646687;87;21142;-71
2022/08/28 11:55:00;;;;;;;;;;;;;;;38.94;19.82;98687.03;1647709;87;20099;-71
2022/08/28 11:57:46;;;;;;;;;;;;;;;38.74;20.04;98687.18;1649550;87;20153;-73
2022/08/28 12:00:25;;;;;;;;;;;;;;;38.65;20.37;98690.77;1652947;85;20090;-73
2022/08/28 12:02:54;;;;;;;;;;;;;;;38.54;19.95;98687.02;1652612;85;20092;-70
2022/08/28 12:05:24;;;;;;;;;;;;;;;38.24;19.87;98687.52;1653194;85;21092;-70
2022/08/28 12:07:50;;;;;;;;;;;;;;;37.99;19.68;98689.84;1650089;85;20457;-71
2022/08/28 12:10:28;;;;;;;;;;;;;;;37.63;19.68;98681.44;1651664;85;20090;-71
2022/08/28 12:13:00;;;;;;;;;;;;;;;37.28;19.97;98686.84;1653189;85;20090;-73
2022/08/28 12:15:31;;;;;;;;;;;;;;;36.97;20.77;98686.40;1652741;85;20110;-70
2022/08/28 12:17:59;;;;;;;;;;;;;;;36.68;21.00;98684.93;1651643;85;21150;-70
2022/08/28 12:20:34;;;;;;;;;;;;;;;36.49;21.25;98684.86;1655800;85;20102;-70
2022/08/28 12:23:05;;;;;;;;;;;;;;;36.30;21.78;98685.56;1648473;85;20579;-71
2022/08/28 12:25:39;;;;;;;;;;;;;;;36.17;22.17;98683.24;1642393;85;20757;-68
2022/08/28 12:28:35;;;;;;;;;;;;;;;36.06;22.21;98685.73;1648836;85;20811;-69
2022/08/28 12:31:08;;;;;;;;;;;;;;;35.93;22.66;98685.56;1653194;85;21992;-69
2022/08/28 12:33:38;;;;;;;;;;;;;;;35.77;22.57;98681.39;1652488;85;20126;-72
2022/08/28 12:36:05;;;;;;;;;;;;;;;35.63;22.80;98687.95;1644400;85;20615;-71
2022/08/28 12:38:33;;;;;;;;;;;;;;;35.54;22.79;98687.29;1652030;85;20102;-71
2022/08/28 12:41:00;;;;;;;;;;;;;;;35.45;23.00;98680.28;1652772;85;20094;-72
2022/08/28 12:43:35;;;;;;;;;;;;;;;35.38;23.58;98684.24;1653258;85;21192;-69
2022/08/28 12:46:09;;;;;;;;;;;;;;;35.28;23.56;98679.42;1617697;85;20110;-70
2022/08/28 12:48:53;;;;;;;;;;;;;;;35.19;23.55;98675.21;1648859;85;20999;-69
2022/08/28 12:51:22;;;;;;;;;;;;;;;35.10;23.76;98670.39;1653075;85;20106;-73
2022/08/28 12:53:52;;;;;;;;;;;;;;;35.01;24.17;98673.29;1652855;85;20110;-71
2022/08/28 12:56:19;;;;;;;;;;;;;;;34.93;24.49;98671.47;1652288;85;21157;-74
2022/08/28 12:58:45;;;;;;;;;;;;;;;34.81;24.73;98667.93;1653079;85;20118;-71
2022/08/28 13:01:15;;;;;;;;;;;;;;;34.69;25.01;98671.51;1653339;85;20115;-70
2022/08/28 13:03:44;;;;;;;;;;;;;;;34.59;25.35;98669.23;1653141;85;20082;-69
2022/08/28 13:06:11;;;;;;;;;;;;;;;34.47;25.43;98670.59;1651827;85;20107;-70
2022/08/28 13:08:37;;;;;;;;;;;;;;;34.41;25.35;98663.69;1651892;85;21935;-72
2022/08/28 13:11:03;;;;;;;;;;;;;;;34.35;25.30;98668.63;1652033;85;20137;-73
2022/08/28 13:13:36;;;;;;;;;;;;;;;34.27;25.00;98664.59;1653259;85;20090;-69